sensor_id;sensor_type;location;lat;lon;timestamp;temperature;humidity
67131;HTU21D;54051;53.464;49.532;2023-07-29T00:00:04;25.98;55.27
67131;HTU21D;54051;53.464;49.532;2023-07-29T00:02:30;26.04;54.71
67131;HTU21D;54051;53.464;49.532;2023-07-29T00:04:58;26.17;54.12
67131;HTU21D;54051;53.464;49.532;2023-07-29T00:07:24;26.23;53.98
67131;HTU21D;54051;53.464;49.532;2023-07-29T00:09:50;26.25;53.81
67131;HTU21D;54051;53.464;49.532;2023-07-29T00:12:17;26.30;53.62
67131;HTU21D;54051;53.464;49.532;2023-07-29T00:14:43;26.31;53.63
67131;HTU21D;54051;53.464;49.532;2023-07-29T00:17:09;26.28;54.48
67131;HTU21D;54051;53.464;49.532;2023-07-29T00:19:35;26.15;57.29
67131;HTU21D;54051;53.464;49.532;2023-07-29T00:22:02;26.05;55.71
67131;HTU21D;54051;53.464;49.532;2023-07-29T00:24:28;26.09;54.48
67131;HTU21D;54051;53.464;49.532;2023-07-29T00:26:54;26.24;54.35
67131;HTU21D;54051;53.464;49.532;2023-07-29T00:29:20;26.24;54.29
67131;HTU21D;54051;53.464;49.532;2023-07-29T00:31:46;26.24;53.90
67131;HTU21D;54051;53.464;49.532;2023-07-29T00:34:13;26.28;53.72
67131;HTU21D;54051;53.464;49.532;2023-07-29T00:36:43;26.34;53.20
67131;HTU21D;54051;53.464;49.532;2023-07-29T00:39:09;26.36;53.53
67131;HTU21D;54051;53.464;49.532;2023-07-29T00:41:35;26.39;52.58
67131;HTU21D;54051;53.464;49.532;2023-07-29T00:44:01;26.48;52.29
67131;HTU21D;54051;53.464;49.532;2023-07-29T00:46:28;26.46;52.15
67131;HTU21D;54051;53.464;49.532;2023-07-29T00:48:55;26.60;50.80
67131;HTU21D;54051;53.464;49.532;2023-07-29T00:51:21;26.84;50.17
67131;HTU21D;54051;53.464;49.532;2023-07-29T00:53:47;27.01;49.30
67131;HTU21D;54051;53.464;49.532;2023-07-29T00:56:14;27.10;49.11
67131;HTU21D;54051;53.464;49.532;2023-07-29T00:58:40;27.13;49.00
67131;HTU21D;54051;53.464;49.532;2023-07-29T01:01:06;27.15;49.02
67131;HTU21D;54051;53.464;49.532;2023-07-29T01:03:33;27.13;49.15
67131;HTU21D;54051;53.464;49.532;2023-07-29T01:06:16;27.08;49.57
67131;HTU21D;54051;53.464;49.532;2023-07-29T01:08:54;26.93;50.24
67131;HTU21D;54051;53.464;49.532;2023-07-29T01:16:42;26.55;52.28
67131;HTU21D;54051;53.464;49.532;2023-07-29T01:22:08;26.41;53.17
67131;HTU21D;54051;53.464;49.532;2023-07-29T01:24:34;26.34;53.55
67131;HTU21D;54051;53.464;49.532;2023-07-29T01:27:00;26.25;54.07
67131;HTU21D;54051;53.464;49.532;2023-07-29T01:29:27;26.17;54.69
67131;HTU21D;54051;53.464;49.532;2023-07-29T01:31:56;26.07;55.17
67131;HTU21D;54051;53.464;49.532;2023-07-29T01:34:35;25.99;55.76
67131;HTU21D;54051;53.464;49.532;2023-07-29T01:37:09;25.97;55.78
67131;HTU21D;54051;53.464;49.532;2023-07-29T01:39:38;25.96;55.99
67131;HTU21D;54051;53.464;49.532;2023-07-29T01:42:05;25.96;56.03
67131;HTU21D;54051;53.464;49.532;2023-07-29T01:44:32;25.99;56.16
67131;HTU21D;54051;53.464;49.532;2023-07-29T01:46:59;25.98;56.27
67131;HTU21D;54051;53.464;49.532;2023-07-29T01:49:25;25.99;56.30
67131;HTU21D;54051;53.464;49.532;2023-07-29T01:51:51;26.04;56.27
67131;HTU21D;54051;53.464;49.532;2023-07-29T01:54:18;25.98;56.70
67131;HTU21D;54051;53.464;49.532;2023-07-29T01:56:44;25.91;56.87
67131;HTU21D;54051;53.464;49.532;2023-07-29T01:59:10;25.96;56.84
67131;HTU21D;54051;53.464;49.532;2023-07-29T02:01:36;26.06;56.52
67131;HTU21D;54051;53.464;49.532;2023-07-29T02:04:02;26.11;56.47
67131;HTU21D;54051;53.464;49.532;2023-07-29T02:06:29;26.18;56.04
67131;HTU21D;54051;53.464;49.532;2023-07-29T02:08:55;26.27;55.78
67131;HTU21D;54051;53.464;49.532;2023-07-29T02:11:21;26.34;55.42
67131;HTU21D;54051;53.464;49.532;2023-07-29T02:13:54;26.47;55.12
67131;HTU21D;54051;53.464;49.532;2023-07-29T02:16:21;26.65;54.26
67131;HTU21D;54051;53.464;49.532;2023-07-29T02:18:48;26.93;53.37
67131;HTU21D;54051;53.464;49.532;2023-07-29T02:21:16;27.37;51.86
67131;HTU21D;54051;53.464;49.532;2023-07-29T02:23:42;28.13;49.31
67131;HTU21D;54051;53.464;49.532;2023-07-29T02:26:08;29.36;45.86
67131;HTU21D;54051;53.464;49.532;2023-07-29T02:28:34;30.86;41.96
67131;HTU21D;54051;53.464;49.532;2023-07-29T02:31:20;32.47;38.55
67131;HTU21D;54051;53.464;49.532;2023-07-29T02:33:47;33.78;35.17
67131;HTU21D;54051;53.464;49.532;2023-07-29T02:36:15;34.05;34.34
67131;HTU21D;54051;53.464;49.532;2023-07-29T02:38:43;34.68;33.09
67131;HTU21D;54051;53.464;49.532;2023-07-29T02:41:10;34.98;32.70
67131;HTU21D;54051;53.464;49.532;2023-07-29T02:43:38;34.88;32.53
67131;HTU21D;54051;53.464;49.532;2023-07-29T02:46:04;34.05;33.92
67131;HTU21D;54051;53.464;49.532;2023-07-29T02:48:30;33.55;35.24
67131;HTU21D;54051;53.464;49.532;2023-07-29T02:50:56;33.86;34.61
67131;HTU21D;54051;53.464;49.532;2023-07-29T02:53:23;34.57;35.60
67131;HTU21D;54051;53.464;49.532;2023-07-29T02:55:49;34.96;34.36
67131;HTU21D;54051;53.464;49.532;2023-07-29T02:58:15;35.79;32.17
67131;HTU21D;54051;53.464;49.532;2023-07-29T03:00:41;35.80;31.90
67131;HTU21D;54051;53.464;49.532;2023-07-29T03:03:09;35.84;31.02
67131;HTU21D;54051;53.464;49.532;2023-07-29T03:05:35;36.26;30.58
67131;HTU21D;54051;53.464;49.532;2023-07-29T03:08:03;36.95;29.64
67131;HTU21D;54051;53.464;49.532;2023-07-29T03:10:29;37.73;26.92
67131;HTU21D;54051;53.464;49.532;2023-07-29T03:12:56;37.74;26.92
67131;HTU21D;54051;53.464;49.532;2023-07-29T03:15:26;38.22;25.99
67131;HTU21D;54051;53.464;49.532;2023-07-29T03:17:52;38.28;25.49
67131;HTU21D;54051;53.464;49.532;2023-07-29T03:20:19;38.25;25.47
67131;HTU21D;54051;53.464;49.532;2023-07-29T03:22:46;38.29;25.57
67131;HTU21D;54051;53.464;49.532;2023-07-29T03:25:13;39.44;23.78
67131;HTU21D;54051;53.464;49.532;2023-07-29T03:27:39;39.49;23.15
67131;HTU21D;54051;53.464;49.532;2023-07-29T03:30:06;39.78;23.21
67131;HTU21D;54051;53.464;49.532;2023-07-29T03:32:33;39.74;23.17
67131;HTU21D;54051;53.464;49.532;2023-07-29T03:34:59;39.29;23.59
67131;HTU21D;54051;53.464;49.532;2023-07-29T03:37:25;39.13;24.02
67131;HTU21D;54051;53.464;49.532;2023-07-29T03:39:51;40.13;22.71
67131;HTU21D;54051;53.464;49.532;2023-07-29T03:42:18;40.32;22.12
67131;HTU21D;54051;53.464;49.532;2023-07-29T03:44:44;40.43;22.00
67131;HTU21D;54051;53.464;49.532;2023-07-29T03:47:10;40.21;22.19
67131;HTU21D;54051;53.464;49.532;2023-07-29T03:49:36;40.33;22.04
67131;HTU21D;54051;53.464;49.532;2023-07-29T03:52:03;40.99;21.26
67131;HTU21D;54051;53.464;49.532;2023-07-29T03:54:29;40.69;21.49
67131;HTU21D;54051;53.464;49.532;2023-07-29T03:56:55;40.26;22.09
67131;HTU21D;54051;53.464;49.532;2023-07-29T03:59:21;40.62;21.53
67131;HTU21D;54051;53.464;49.532;2023-07-29T04:01:48;40.35;21.75
67131;HTU21D;54051;53.464;49.532;2023-07-29T04:04:15;40.04;22.24
67131;HTU21D;54051;53.464;49.532;2023-07-29T04:06:41;40.32;21.80
67131;HTU21D;54051;53.464;49.532;2023-07-29T04:09:07;41.04;20.77
67131;HTU21D;54051;53.464;49.532;2023-07-29T04:11:34;41.78;19.81
67131;HTU21D;54051;53.464;49.532;2023-07-29T04:14:00;41.99;19.53
67131;HTU21D;54051;53.464;49.532;2023-07-29T04:16:26;42.49;18.96
67131;HTU21D;54051;53.464;49.532;2023-07-29T04:18:52;43.44;17.61
67131;HTU21D;54051;53.464;49.532;2023-07-29T04:21:19;43.42;17.53
67131;HTU21D;54051;53.464;49.532;2023-07-29T04:23:45;43.27;17.86
67131;HTU21D;54051;53.464;49.532;2023-07-29T04:26:11;43.38;17.55
67131;HTU21D;54051;53.464;49.532;2023-07-29T04:28:38;43.48;17.50
67131;HTU21D;54051;53.464;49.532;2023-07-29T04:31:04;43.05;18.35
67131;HTU21D;54051;53.464;49.532;2023-07-29T04:33:30;43.37;17.75
67131;HTU21D;54051;53.464;49.532;2023-07-29T04:35:57;43.65;17.43
67131;HTU21D;54051;53.464;49.532;2023-07-29T04:38:30;43.36;17.72
67131;HTU21D;54051;53.464;49.532;2023-07-29T04:40:57;43.64;17.66
67131;HTU21D;54051;53.464;49.532;2023-07-29T04:43:27;43.62;17.54
67131;HTU21D;54051;53.464;49.532;2023-07-29T04:45:54;42.63;18.70
67131;HTU21D;54051;53.464;49.532;2023-07-29T04:48:32;41.89;19.83
67131;HTU21D;54051;53.464;49.532;2023-07-29T04:50:58;41.75;20.37
67131;HTU21D;54051;53.464;49.532;2023-07-29T04:53:24;43.10;18.41
67131;HTU21D;54051;53.464;49.532;2023-07-29T04:55:51;43.57;17.87
67131;HTU21D;54051;53.464;49.532;2023-07-29T04:58:22;41.40;20.76
67131;HTU21D;54051;53.464;49.532;2023-07-29T05:00:49;39.21;24.08
67131;HTU21D;54051;53.464;49.532;2023-07-29T05:03:15;39.25;24.18
67131;HTU21D;54051;53.464;49.532;2023-07-29T05:05:42;38.47;25.38
67131;HTU21D;54051;53.464;49.532;2023-07-29T05:08:10;37.80;26.69
67131;HTU21D;54051;53.464;49.532;2023-07-29T05:10:36;37.52;26.95
67131;HTU21D;54051;53.464;49.532;2023-07-29T05:13:02;36.99;28.00
67131;HTU21D;54051;53.464;49.532;2023-07-29T05:15:29;37.17;27.59
67131;HTU21D;54051;53.464;49.532;2023-07-29T05:17:55;37.55;27.26
67131;HTU21D;54051;53.464;49.532;2023-07-29T05:20:21;38.09;26.52
67131;HTU21D;54051;53.464;49.532;2023-07-29T05:22:50;38.91;25.08
67131;HTU21D;54051;53.464;49.532;2023-07-29T05:25:16;39.25;24.57
67131;HTU21D;54051;53.464;49.532;2023-07-29T05:27:43;39.85;23.31
67131;HTU21D;54051;53.464;49.532;2023-07-29T05:30:09;40.96;21.90
67131;HTU21D;54051;53.464;49.532;2023-07-29T05:32:35;42.24;20.15
67131;HTU21D;54051;53.464;49.532;2023-07-29T05:35:01;43.78;18.03
67131;HTU21D;54051;53.464;49.532;2023-07-29T05:37:27;44.38;17.37
67131;HTU21D;54051;53.464;49.532;2023-07-29T05:39:54;44.22;17.64
67131;HTU21D;54051;53.464;49.532;2023-07-29T05:42:20;44.27;17.72
67131;HTU21D;54051;53.464;49.532;2023-07-29T05:44:46;44.56;17.51
67131;HTU21D;54051;53.464;49.532;2023-07-29T05:47:12;45.38;16.52
67131;HTU21D;54051;53.464;49.532;2023-07-29T05:49:38;45.81;16.01
67131;HTU21D;54051;53.464;49.532;2023-07-29T05:52:05;45.83;16.03
67131;HTU21D;54051;53.464;49.532;2023-07-29T05:54:31;45.02;16.92
67131;HTU21D;54051;53.464;49.532;2023-07-29T05:56:57;43.70;18.25
67131;HTU21D;54051;53.464;49.532;2023-07-29T05:59:23;42.45;20.21
67131;HTU21D;54051;53.464;49.532;2023-07-29T06:01:49;41.21;22.23
67131;HTU21D;54051;53.464;49.532;2023-07-29T06:04:16;42.16;20.79
67131;HTU21D;54051;53.464;49.532;2023-07-29T06:06:42;42.02;20.82
67131;HTU21D;54051;53.464;49.532;2023-07-29T06:09:08;42.66;20.04
67131;HTU21D;54051;53.464;49.532;2023-07-29T06:11:37;42.59;20.29
67131;HTU21D;54051;53.464;49.532;2023-07-29T06:14:04;42.80;19.80
67131;HTU21D;54051;53.464;49.532;2023-07-29T06:16:30;42.52;20.54
67131;HTU21D;54051;53.464;49.532;2023-07-29T06:18:56;43.38;19.02
67131;HTU21D;54051;53.464;49.532;2023-07-29T06:21:23;43.69;18.61
67131;HTU21D;54051;53.464;49.532;2023-07-29T06:23:49;44.27;17.75
67131;HTU21D;54051;53.464;49.532;2023-07-29T06:26:15;44.51;17.67
67131;HTU21D;54051;53.464;49.532;2023-07-29T06:28:41;45.02;16.60
67131;HTU21D;54051;53.464;49.532;2023-07-29T06:31:08;44.55;17.36
67131;HTU21D;54051;53.464;49.532;2023-07-29T06:33:34;41.51;21.40
67131;HTU21D;54051;53.464;49.532;2023-07-29T06:36:00;40.46;23.56
67131;HTU21D;54051;53.464;49.532;2023-07-29T06:38:26;42.36;20.56
67131;HTU21D;54051;53.464;49.532;2023-07-29T06:40:52;42.99;19.66
67131;HTU21D;54051;53.464;49.532;2023-07-29T06:43:18;44.03;18.14
67131;HTU21D;54051;53.464;49.532;2023-07-29T06:45:45;44.08;18.12
67131;HTU21D;54051;53.464;49.532;2023-07-29T06:48:11;42.69;19.99
67131;HTU21D;54051;53.464;49.532;2023-07-29T06:50:37;43.39;19.06
67131;HTU21D;54051;53.464;49.532;2023-07-29T06:53:03;43.78;18.43
67131;HTU21D;54051;53.464;49.532;2023-07-29T06:55:29;44.01;17.37
67131;HTU21D;54051;53.464;49.532;2023-07-29T06:57:56;44.43;17.55
67131;HTU21D;54051;53.464;49.532;2023-07-29T07:00:22;44.62;16.74
67131;HTU21D;54051;53.464;49.532;2023-07-29T07:02:48;44.98;16.45
67131;HTU21D;54051;53.464;49.532;2023-07-29T07:05:14;45.92;15.50
67131;HTU21D;54051;53.464;49.532;2023-07-29T07:07:41;45.98;15.05
67131;HTU21D;54051;53.464;49.532;2023-07-29T07:10:07;45.91;15.35
67131;HTU21D;54051;53.464;49.532;2023-07-29T07:12:34;45.13;16.18
67131;HTU21D;54051;53.464;49.532;2023-07-29T07:15:00;44.17;17.32
67131;HTU21D;54051;53.464;49.532;2023-07-29T07:17:27;43.96;17.26
67131;HTU21D;54051;53.464;49.532;2023-07-29T07:19:53;43.72;17.90
67131;HTU21D;54051;53.464;49.532;2023-07-29T07:22:19;43.93;17.51
67131;HTU21D;54051;53.464;49.532;2023-07-29T07:24:48;44.55;16.71
67131;HTU21D;54051;53.464;49.532;2023-07-29T07:27:14;43.99;17.80
67131;HTU21D;54051;53.464;49.532;2023-07-29T07:29:43;44.38;16.97
67131;HTU21D;54051;53.464;49.532;2023-07-29T07:32:09;44.23;17.84
67131;HTU21D;54051;53.464;49.532;2023-07-29T07:34:36;44.94;16.41
67131;HTU21D;54051;53.464;49.532;2023-07-29T07:37:02;43.96;17.64
67131;HTU21D;54051;53.464;49.532;2023-07-29T07:39:31;43.97;17.74
67131;HTU21D;54051;53.464;49.532;2023-07-29T07:41:57;43.58;18.35
67131;HTU21D;54051;53.464;49.532;2023-07-29T07:44:23;43.51;18.58
67131;HTU21D;54051;53.464;49.532;2023-07-29T07:46:54;43.71;18.18
67131;HTU21D;54051;53.464;49.532;2023-07-29T07:49:21;43.73;18.15
67131;HTU21D;54051;53.464;49.532;2023-07-29T07:51:47;44.23;17.72
67131;HTU21D;54051;53.464;49.532;2023-07-29T07:54:13;43.92;17.64
67131;HTU21D;54051;53.464;49.532;2023-07-29T07:56:40;43.50;17.74
67131;HTU21D;54051;53.464;49.532;2023-07-29T07:59:06;43.63;17.96
67131;HTU21D;54051;53.464;49.532;2023-07-29T08:01:38;43.67;17.77
67131;HTU21D;54051;53.464;49.532;2023-07-29T08:04:04;43.55;16.69
67131;HTU21D;54051;53.464;49.532;2023-07-29T08:06:31;43.87;16.87
67131;HTU21D;54051;53.464;49.532;2023-07-29T08:08:58;44.17;16.61
67131;HTU21D;54051;53.464;49.532;2023-07-29T08:11:25;43.65;17.03
67131;HTU21D;54051;53.464;49.532;2023-07-29T08:13:52;43.39;17.12
67131;HTU21D;54051;53.464;49.532;2023-07-29T08:16:18;42.37;18.40
67131;HTU21D;54051;53.464;49.532;2023-07-29T08:18:44;40.85;20.29
67131;HTU21D;54051;53.464;49.532;2023-07-29T08:21:10;39.51;22.13
67131;HTU21D;54051;53.464;49.532;2023-07-29T08:23:36;38.75;23.30
67131;HTU21D;54051;53.464;49.532;2023-07-29T08:26:04;38.37;24.26
67131;HTU21D;54051;53.464;49.532;2023-07-29T08:28:34;38.46;23.79
67131;HTU21D;54051;53.464;49.532;2023-07-29T08:31:00;38.62;23.82
67131;HTU21D;54051;53.464;49.532;2023-07-29T08:33:27;38.38;24.65
67131;HTU21D;54051;53.464;49.532;2023-07-29T08:35:54;38.43;24.59
67131;HTU21D;54051;53.464;49.532;2023-07-29T08:38:20;38.14;25.11
67131;HTU21D;54051;53.464;49.532;2023-07-29T08:40:54;37.81;25.69
67131;HTU21D;54051;53.464;49.532;2023-07-29T08:43:29;37.90;25.33
67131;HTU21D;54051;53.464;49.532;2023-07-29T08:45:58;37.84;25.42
67131;HTU21D;54051;53.464;49.532;2023-07-29T08:51:03;38.05;25.07
67131;HTU21D;54051;53.464;49.532;2023-07-29T08:53:31;37.70;26.12
67131;HTU21D;54051;53.464;49.532;2023-07-29T08:55:57;37.57;26.61
67131;HTU21D;54051;53.464;49.532;2023-07-29T08:58:24;37.52;26.80
67131;HTU21D;54051;53.464;49.532;2023-07-29T09:00:51;37.47;27.02
67131;HTU21D;54051;53.464;49.532;2023-07-29T09:03:17;37.12;26.57
67131;HTU21D;54051;53.464;49.532;2023-07-29T09:05:43;37.07;26.17
67131;HTU21D;54051;53.464;49.532;2023-07-29T09:08:10;37.00;26.51
67131;HTU21D;54051;53.464;49.532;2023-07-29T09:10:36;37.02;26.62
67131;HTU21D;54051;53.464;49.532;2023-07-29T09:13:04;37.21;26.56
67131;HTU21D;54051;53.464;49.532;2023-07-29T09:15:31;37.12;26.98
67131;HTU21D;54051;53.464;49.532;2023-07-29T09:17:59;36.97;25.10
67131;HTU21D;54051;53.464;49.532;2023-07-29T09:20:26;36.97;25.78
67131;HTU21D;54051;53.464;49.532;2023-07-29T09:22:58;37.00;26.88
67131;HTU21D;54051;53.464;49.532;2023-07-29T09:25:29;36.75;27.84
67131;HTU21D;54051;53.464;49.532;2023-07-29T09:27:59;36.77;27.57
67131;HTU21D;54051;53.464;49.532;2023-07-29T09:30:28;36.96;25.86
67131;HTU21D;54051;53.464;49.532;2023-07-29T09:32:57;37.02;26.71
67131;HTU21D;54051;53.464;49.532;2023-07-29T09:35:27;37.25;26.79
67131;HTU21D;54051;53.464;49.532;2023-07-29T09:37:54;37.35;24.33
67131;HTU21D;54051;53.464;49.532;2023-07-29T09:40:20;37.12;24.27
67131;HTU21D;54051;53.464;49.532;2023-07-29T09:43:05;37.11;24.88
67131;HTU21D;54051;53.464;49.532;2023-07-29T09:45:33;37.33;25.25
67131;HTU21D;54051;53.464;49.532;2023-07-29T09:48:00;37.51;24.71
67131;HTU21D;54051;53.464;49.532;2023-07-29T09:50:26;37.60;24.46
67131;HTU21D;54051;53.464;49.532;2023-07-29T09:52:54;37.99;23.98
67131;HTU21D;54051;53.464;49.532;2023-07-29T09:55:22;38.08;24.20
67131;HTU21D;54051;53.464;49.532;2023-07-29T09:58:00;38.26;24.33
67131;HTU21D;54051;53.464;49.532;2023-07-29T10:00:28;38.23;24.03
67131;HTU21D;54051;53.464;49.532;2023-07-29T10:02:55;38.21;23.59
67131;HTU21D;54051;53.464;49.532;2023-07-29T10:05:25;38.15;22.87
67131;HTU21D;54051;53.464;49.532;2023-07-29T10:07:52;37.99;22.76
67131;HTU21D;54051;53.464;49.532;2023-07-29T10:10:20;37.77;23.33
67131;HTU21D;54051;53.464;49.532;2023-07-29T10:12:46;37.73;23.10
67131;HTU21D;54051;53.464;49.532;2023-07-29T10:15:13;37.63;22.95
67131;HTU21D;54051;53.464;49.532;2023-07-29T10:17:40;37.52;22.30
67131;HTU21D;54051;53.464;49.532;2023-07-29T10:20:09;37.33;23.25
67131;HTU21D;54051;53.464;49.532;2023-07-29T10:22:37;37.32;24.25
67131;HTU21D;54051;53.464;49.532;2023-07-29T10:25:23;37.35;24.08
67131;HTU21D;54051;53.464;49.532;2023-07-29T10:27:58;37.40;22.89
67131;HTU21D;54051;53.464;49.532;2023-07-29T10:30:28;37.41;22.82
67131;HTU21D;54051;53.464;49.532;2023-07-29T10:32:58;37.40;23.01
67131;HTU21D;54051;53.464;49.532;2023-07-29T10:35:24;37.27;23.18
67131;HTU21D;54051;53.464;49.532;2023-07-29T10:37:53;37.35;22.98
67131;HTU21D;54051;53.464;49.532;2023-07-29T10:40:21;37.33;23.10
67131;HTU21D;54051;53.464;49.532;2023-07-29T10:43:10;37.31;23.05
67131;HTU21D;54051;53.464;49.532;2023-07-29T10:45:41;37.40;23.17
67131;HTU21D;54051;53.464;49.532;2023-07-29T10:48:12;37.21;23.21
67131;HTU21D;54051;53.464;49.532;2023-07-29T10:50:39;37.32;23.76
67131;HTU21D;54051;53.464;49.532;2023-07-29T10:53:05;37.48;23.41
67131;HTU21D;54051;53.464;49.532;2023-07-29T10:55:34;37.40;23.84
67131;HTU21D;54051;53.464;49.532;2023-07-29T10:58:12;37.50;23.27
67131;HTU21D;54051;53.464;49.532;2023-07-29T11:00:41;37.48;22.86
67131;HTU21D;54051;53.464;49.532;2023-07-29T11:03:09;37.47;23.15
67131;HTU21D;54051;53.464;49.532;2023-07-29T11:08:19;37.94;21.85
67131;HTU21D;54051;53.464;49.532;2023-07-29T11:10:59;37.72;22.50
67131;HTU21D;54051;53.464;49.532;2023-07-29T11:13:28;37.87;22.42
67131;HTU21D;54051;53.464;49.532;2023-07-29T11:15:55;38.03;22.11
67131;HTU21D;54051;53.464;49.532;2023-07-29T11:18:22;38.08;22.42
67131;HTU21D;54051;53.464;49.532;2023-07-29T11:20:49;38.00;22.76
67131;HTU21D;54051;53.464;49.532;2023-07-29T11:23:16;37.87;23.13
67131;HTU21D;54051;53.464;49.532;2023-07-29T11:25:42;37.75;23.33
67131;HTU21D;54051;53.464;49.532;2023-07-29T11:28:08;37.45;23.53
67131;HTU21D;54051;53.464;49.532;2023-07-29T11:30:39;37.11;23.17
67131;HTU21D;54051;53.464;49.532;2023-07-29T11:33:05;36.74;24.37
67131;HTU21D;54051;53.464;49.532;2023-07-29T11:35:32;36.39;24.10
67131;HTU21D;54051;53.464;49.532;2023-07-29T11:37:58;36.24;24.47
67131;HTU21D;54051;53.464;49.532;2023-07-29T11:40:24;36.02;23.50
67131;HTU21D;54051;53.464;49.532;2023-07-29T11:42:52;35.87;23.77
67131;HTU21D;54051;53.464;49.532;2023-07-29T11:45:19;35.75;22.95
67131;HTU21D;54051;53.464;49.532;2023-07-29T11:47:46;35.69;23.41
67131;HTU21D;54051;53.464;49.532;2023-07-29T11:50:14;35.60;23.08
67131;HTU21D;54051;53.464;49.532;2023-07-29T11:52:42;35.50;23.85
67131;HTU21D;54051;53.464;49.532;2023-07-29T11:55:09;35.35;24.54
67131;HTU21D;54051;53.464;49.532;2023-07-29T11:57:37;35.26;25.03
67131;HTU21D;54051;53.464;49.532;2023-07-29T12:00:05;35.11;25.70
67131;HTU21D;54051;53.464;49.532;2023-07-29T12:02:33;34.90;27.21
67131;HTU21D;54051;53.464;49.532;2023-07-29T12:05:04;33.11;31.25
67131;HTU21D;54051;53.464;49.532;2023-07-29T12:07:31;30.23;42.71
67131;HTU21D;54051;53.464;49.532;2023-07-29T12:09:57;28.14;50.51
67131;HTU21D;54051;53.464;49.532;2023-07-29T12:12:24;26.67;58.31
67131;HTU21D;54051;53.464;49.532;2023-07-29T12:14:50;24.17;83.92
67131;HTU21D;54051;53.464;49.532;2023-07-29T12:17:18;21.89;95.04
67131;HTU21D;54051;53.464;49.532;2023-07-29T12:19:44;21.72;97.53
67131;HTU21D;54051;53.464;49.532;2023-07-29T12:22:10;22.13;99.16
67131;HTU21D;54051;53.464;49.532;2023-07-29T12:24:38;22.42;99.03
67131;HTU21D;54051;53.464;49.532;2023-07-29T12:27:05;22.63;97.82
67131;HTU21D;54051;53.464;49.532;2023-07-29T12:29:31;22.60;96.62
67131;HTU21D;54051;53.464;49.532;2023-07-29T12:31:59;22.99;96.13
67131;HTU21D;54051;53.464;49.532;2023-07-29T12:34:27;23.29;96.65
67131;HTU21D;54051;53.464;49.532;2023-07-29T12:36:58;23.25;95.55
67131;HTU21D;54051;53.464;49.532;2023-07-29T12:39:30;23.38;96.43
67131;HTU21D;54051;53.464;49.532;2023-07-29T12:41:58;23.95;98.62
67131;HTU21D;54051;53.464;49.532;2023-07-29T12:44:26;24.33;98.73
67131;HTU21D;54051;53.464;49.532;2023-07-29T12:46:53;24.54;97.55
67131;HTU21D;54051;53.464;49.532;2023-07-29T12:49:19;24.77;97.68
67131;HTU21D;54051;53.464;49.532;2023-07-29T12:51:46;25.07;97.90
67131;HTU21D;54051;53.464;49.532;2023-07-29T12:54:12;25.10;96.33
67131;HTU21D;54051;53.464;49.532;2023-07-29T12:56:38;25.21;95.36
67131;HTU21D;54051;53.464;49.532;2023-07-29T12:59:05;24.83;93.82
67131;HTU21D;54051;53.464;49.532;2023-07-29T13:01:31;24.63;93.98
67131;HTU21D;54051;53.464;49.532;2023-07-29T13:03:58;24.79;94.22
67131;HTU21D;54051;53.464;49.532;2023-07-29T13:06:24;25.00;89.79
67131;HTU21D;54051;53.464;49.532;2023-07-29T13:08:50;25.16;86.67
67131;HTU21D;54051;53.464;49.532;2023-07-29T13:11:16;25.20;82.29
67131;HTU21D;54051;53.464;49.532;2023-07-29T13:13:42;25.36;84.00
67131;HTU21D;54051;53.464;49.532;2023-07-29T13:16:09;25.58;84.31
67131;HTU21D;54051;53.464;49.532;2023-07-29T13:18:35;25.63;82.73
67131;HTU21D;54051;53.464;49.532;2023-07-29T13:21:02;25.74;79.11
67131;HTU21D;54051;53.464;49.532;2023-07-29T13:23:28;25.69;75.60
67131;HTU21D;54051;53.464;49.532;2023-07-29T13:25:56;25.65;73.93
67131;HTU21D;54051;53.464;49.532;2023-07-29T13:28:22;25.72;75.47
67131;HTU21D;54051;53.464;49.532;2023-07-29T13:30:49;25.90;74.65
67131;HTU21D;54051;53.464;49.532;2023-07-29T13:33:15;25.75;65.92
67131;HTU21D;54051;53.464;49.532;2023-07-29T13:35:42;25.52;71.90
67131;HTU21D;54051;53.464;49.532;2023-07-29T13:38:08;25.69;70.98
67131;HTU21D;54051;53.464;49.532;2023-07-29T13:40:35;25.90;69.95
67131;HTU21D;54051;53.464;49.532;2023-07-29T13:43:01;26.18;69.07
67131;HTU21D;54051;53.464;49.532;2023-07-29T13:45:27;26.31;69.47
67131;HTU21D;54051;53.464;49.532;2023-07-29T13:47:53;26.38;66.18
67131;HTU21D;54051;53.464;49.532;2023-07-29T13:50:19;26.26;62.02
67131;HTU21D;54051;53.464;49.532;2023-07-29T13:52:47;26.26;62.50
67131;HTU21D;54051;53.464;49.532;2023-07-29T13:55:13;26.22;61.41
67131;HTU21D;54051;53.464;49.532;2023-07-29T13:57:39;26.28;59.21
67131;HTU21D;54051;53.464;49.532;2023-07-29T14:00:06;26.41;60.36
67131;HTU21D;54051;53.464;49.532;2023-07-29T14:02:33;26.45;57.58
67131;HTU21D;54051;53.464;49.532;2023-07-29T14:04:59;26.47;57.87
67131;HTU21D;54051;53.464;49.532;2023-07-29T14:07:26;26.46;57.48
67131;HTU21D;54051;53.464;49.532;2023-07-29T14:09:52;26.54;58.55
67131;HTU21D;54051;53.464;49.532;2023-07-29T14:12:18;26.57;58.08
67131;HTU21D;54051;53.464;49.532;2023-07-29T14:14:44;26.48;58.96
67131;HTU21D;54051;53.464;49.532;2023-07-29T14:17:10;26.50;58.47
67131;HTU21D;54051;53.464;49.532;2023-07-29T14:19:39;26.49;58.57
67131;HTU21D;54051;53.464;49.532;2023-07-29T14:22:05;26.38;59.00
67131;HTU21D;54051;53.464;49.532;2023-07-29T14:24:32;26.47;59.25
67131;HTU21D;54051;53.464;49.532;2023-07-29T14:26:58;26.60;59.44
67131;HTU21D;54051;53.464;49.532;2023-07-29T14:29:24;26.63;59.98
67131;HTU21D;54051;53.464;49.532;2023-07-29T14:31:50;26.66;59.90
67131;HTU21D;54051;53.464;49.532;2023-07-29T14:34:16;26.53;59.71
67131;HTU21D;54051;53.464;49.532;2023-07-29T14:36:43;26.48;59.83
67131;HTU21D;54051;53.464;49.532;2023-07-29T14:39:09;26.46;59.60
67131;HTU21D;54051;53.464;49.532;2023-07-29T14:41:35;26.39;60.86
67131;HTU21D;54051;53.464;49.532;2023-07-29T14:44:01;26.25;60.76
67131;HTU21D;54051;53.464;49.532;2023-07-29T14:46:27;26.20;60.25
67131;HTU21D;54051;53.464;49.532;2023-07-29T14:48:54;26.13;61.19
67131;HTU21D;54051;53.464;49.532;2023-07-29T14:51:20;26.05;62.31
67131;HTU21D;54051;53.464;49.532;2023-07-29T14:53:46;25.88;62.86
67131;HTU21D;54051;53.464;49.532;2023-07-29T14:56:12;25.77;63.22
67131;HTU21D;54051;53.464;49.532;2023-07-29T14:58:41;25.69;63.03
67131;HTU21D;54051;53.464;49.532;2023-07-29T15:01:07;25.69;63.06
67131;HTU21D;54051;53.464;49.532;2023-07-29T15:03:33;25.83;62.69
67131;HTU21D;54051;53.464;49.532;2023-07-29T15:05:59;25.72;62.61
67131;HTU21D;54051;53.464;49.532;2023-07-29T15:08:26;25.75;61.48
67131;HTU21D;54051;53.464;49.532;2023-07-29T15:10:52;25.80;60.23
67131;HTU21D;54051;53.464;49.532;2023-07-29T15:13:20;25.91;59.28
67131;HTU21D;54051;53.464;49.532;2023-07-29T15:15:46;25.93;58.62